createdAt,value
2018-05-29T00:00:27.261Z,18.30
2018-05-29T00:02:54.765Z,18.50
2018-05-29T00:05:23.242Z,18.50
2018-05-29T00:07:52.559Z,18.40
2018-05-29T00:10:20.129Z,18.40
2018-05-29T00:13:05.544Z,18.40
2018-05-29T00:15:33.034Z,18.30
2018-05-29T00:18:00.545Z,18.20
2018-05-29T00:20:29.420Z,18.20
2018-05-29T00:22:57.872Z,18.20
2018-05-29T00:38:57.281Z,17.40
2018-05-29T00:41:25.695Z,17.40
2018-05-29T00:43:53.191Z,17.20
2018-05-29T00:46:20.736Z,17.20
2018-05-29T00:48:48.363Z,17.30
2018-05-29T00:51:17.192Z,17.40
2018-05-29T00:53:48.721Z,17.20
2018-05-29T00:56:17.972Z,17.00
2018-05-29T00:58:46.440Z,16.90
2018-05-29T01:01:14.360Z,17.00
2018-05-29T01:03:42.881Z,17.10
2018-05-29T01:06:11.151Z,17.30
2018-05-29T01:08:39.439Z,17.30
2018-05-29T01:11:10.657Z,17.30
2018-05-29T01:13:40.118Z,17.30
2018-05-29T01:16:07.621Z,17.30
2018-05-29T01:18:35.157Z,17.30
2018-05-29T01:21:03.678Z,17.50
2018-05-29T01:23:31.928Z,17.40
2018-05-29T01:25:59.445Z,17.50
2018-05-29T01:28:28.039Z,17.40
2018-05-29T01:44:26.869Z,18.00
2018-05-29T01:46:54.659Z,18.00
2018-05-29T01:49:23.084Z,17.80
2018-05-29T01:51:51.710Z,17.70
2018-05-29T01:54:20.138Z,17.70
2018-05-29T01:56:49.744Z,17.90
2018-05-29T01:59:18.843Z,17.90
2018-05-29T02:01:50.071Z,18.00
2018-05-29T02:04:17.976Z,18.00
2018-05-29T02:06:47.321Z,18.10
2018-05-29T02:09:14.877Z,18.10
2018-05-29T02:11:42.451Z,18.20
2018-05-29T02:14:11.085Z,18.20
2018-05-29T02:16:40.982Z,18.20
2018-05-29T02:19:09.808Z,18.20
2018-05-29T02:21:37.336Z,18.40
2018-05-29T02:24:06.762Z,18.50
2018-05-29T02:26:35.066Z,18.50
2018-05-29T02:29:02.782Z,18.50
2018-05-29T02:31:30.317Z,18.70
2018-05-29T02:33:57.847Z,18.70
2018-05-29T02:36:27.230Z,18.70
2018-05-29T02:38:55.645Z,18.70
2018-05-29T02:41:23.984Z,18.50
2018-05-29T02:43:52.545Z,18.50
2018-05-29T02:46:21.307Z,18.50
2018-05-29T02:48:48.971Z,18.50
2018-05-29T02:51:16.510Z,18.40
2018-05-29T02:54:04.790Z,18.40
2018-05-29T02:56:32.379Z,18.40
2018-05-29T02:59:01.520Z,18.30
2018-05-29T03:01:29.030Z,18.30
2018-05-29T03:03:56.700Z,18.20
2018-05-29T03:06:24.213Z,18.20
2018-05-29T03:08:53.633Z,18.20
2018-05-29T03:11:22.893Z,18.30
2018-05-29T03:13:51.268Z,18.30
2018-05-29T03:16:18.770Z,18.30
2018-05-29T03:18:46.678Z,18.30
2018-05-29T03:21:15.122Z,18.30
2018-05-29T03:23:43.826Z,18.30
2018-05-29T03:26:11.441Z,18.30
2018-05-29T03:28:40.924Z,18.30
2018-05-29T03:31:09.173Z,18.30
2018-05-29T03:33:36.731Z,18.20
2018-05-29T03:36:05.312Z,18.20
2018-05-29T03:38:32.876Z,18.20
2018-05-29T03:41:00.836Z,18.10
2018-05-29T03:43:29.305Z,18.10
2018-05-29T03:45:58.180Z,18.10
2018-05-29T03:48:25.731Z,18.10
2018-05-29T03:50:53.265Z,18.20
2018-05-29T03:53:20.795Z,18.20
2018-05-29T03:55:52.370Z,18.10
2018-05-29T03:58:19.892Z,18.20
2018-05-29T04:00:47.759Z,18.10
2018-05-29T04:03:15.301Z,18.10
2018-05-29T04:05:45.628Z,18.20
2018-05-29T04:08:14.066Z,18.20
2018-05-29T04:10:42.531Z,18.20
2018-05-29T04:13:10.071Z,18.30
2018-05-29T04:15:37.650Z,18.30
2018-05-29T04:18:06.756Z,18.30
2018-05-29T04:20:34.759Z,18.40
2018-05-29T04:23:02.400Z,18.40
2018-05-29T04:25:29.939Z,18.40
2018-05-29T04:28:01.112Z,18.40
2018-05-29T04:30:29.645Z,18.40
2018-05-29T04:32:57.169Z,18.40
2018-05-29T04:35:24.672Z,18.50
2018-05-29T04:37:52.185Z,18.60
2018-05-29T04:40:19.752Z,18.60
2018-05-29T04:42:48.282Z,18.60
2018-05-29T04:45:15.803Z,18.70
2018-05-29T04:47:44.435Z,18.70
2018-05-29T04:50:13.025Z,18.80
2018-05-29T04:52:43.179Z,18.80
2018-05-29T04:55:11.452Z,18.80
2018-05-29T04:57:39.726Z,18.90
2018-05-29T05:00:08.018Z,18.90
2018-05-29T05:02:36.312Z,18.90
2018-05-29T05:05:03.860Z,18.90
2018-05-29T05:07:32.125Z,18.90
2018-05-29T05:09:59.909Z,18.90
2018-05-29T05:12:27.489Z,18.90
2018-05-29T05:14:55.775Z,19.00
2018-05-29T05:17:24.989Z,19.00
2018-05-29T05:19:52.514Z,19.00
2018-05-29T05:22:20.974Z,19.00
2018-05-29T05:24:49.439Z,19.00
2018-05-29T05:27:17.860Z,19.00
2018-05-29T05:29:45.381Z,19.10
2018-05-29T05:32:13.837Z,19.10
2018-05-29T05:34:42.231Z,19.20
2018-05-29T05:37:09.790Z,19.20
2018-05-29T05:39:39.022Z,19.30
2018-05-29T05:42:07.443Z,19.30
2018-05-29T05:47:34.886Z,19.20
2018-05-29T05:50:02.460Z,19.20
2018-05-29T05:52:29.993Z,19.30
2018-05-29T05:54:57.499Z,19.30
2018-05-29T05:57:25.079Z,19.30
2018-05-29T05:59:53.360Z,19.30
2018-05-29T06:02:21.634Z,19.30
2018-05-29T06:04:50.456Z,19.20
2018-05-29T06:07:17.986Z,19.30
2018-05-29T06:09:46.416Z,19.20
2018-05-29T06:12:14.047Z,19.30
2018-05-29T06:14:41.793Z,19.40
2018-05-29T06:17:11.139Z,19.50
2018-05-29T06:19:39.439Z,19.60
2018-05-29T06:22:06.981Z,19.60
2018-05-29T06:24:34.530Z,19.70
2018-05-29T06:27:02.072Z,19.90
2018-05-29T06:29:29.664Z,19.80
2018-05-29T06:31:58.415Z,20.00
2018-05-29T06:34:26.840Z,20.00
2018-05-29T06:36:54.511Z,20.00
2018-05-29T06:39:24.011Z,19.80
2018-05-29T06:41:51.621Z,19.80
2018-05-29T06:44:19.231Z,19.90
2018-05-29T06:46:46.801Z,20.00
2018-05-29T06:49:15.271Z,20.20
2018-05-29T06:51:42.950Z,20.40
2018-05-29T06:54:11.736Z,20.80
2018-05-29T06:56:40.219Z,21.00
2018-05-29T06:59:07.856Z,21.20
2018-05-29T07:01:36.865Z,21.50
2018-05-29T07:04:04.458Z,21.90
2018-05-29T07:06:32.805Z,22.50
2018-05-29T07:09:00.314Z,23.10
2018-05-29T07:11:27.913Z,23.50
2018-05-29T07:13:55.586Z,23.50
2018-05-29T07:16:24.739Z,23.40
2018-05-29T07:18:52.238Z,23.10
2018-05-29T07:21:19.757Z,22.50
2018-05-29T07:37:16.254Z,22.10
2018-05-29T07:39:43.917Z,22.00
2018-05-29T07:42:12.509Z,22.10
2018-05-29T07:44:40.078Z,22.10
2018-05-29T07:47:07.578Z,22.00
2018-05-29T07:49:35.843Z,22.20
2018-05-29T07:52:03.420Z,22.10
2018-05-29T07:54:31.013Z,22.30
2018-05-29T07:56:58.556Z,22.30
2018-05-29T07:59:26.860Z,22.50
2018-05-29T08:01:54.405Z,22.50
2018-05-29T08:04:23.683Z,23.20
2018-05-29T08:06:51.793Z,23.10
2018-05-29T08:09:20.826Z,23.20
2018-05-29T08:11:50.228Z,23.20
2018-05-29T08:14:17.843Z,23.60
2018-05-29T08:16:45.361Z,23.70
2018-05-29T08:19:12.862Z,24.00
2018-05-29T08:21:40.397Z,23.80
2018-05-29T08:24:08.912Z,23.60
2018-05-29T08:26:36.779Z,23.60
2018-05-29T08:29:04.475Z,23.40
2018-05-29T08:31:32.747Z,23.90
2018-05-29T08:34:00.584Z,23.90
2018-05-29T08:36:28.152Z,24.00
2018-05-29T08:38:55.655Z,24.00
2018-05-29T08:41:24.114Z,24.10
2018-05-29T08:43:53.767Z,23.70
2018-05-29T08:46:21.796Z,23.50
2018-05-29T08:48:50.251Z,24.00
2018-05-29T08:54:12.464Z,23.40
2018-05-29T08:56:40.022Z,23.60
2018-05-29T08:59:08.280Z,23.60
2018-05-29T09:01:35.849Z,23.60
2018-05-29T09:04:06.430Z,23.50
2018-05-29T09:06:35.642Z,23.40
2018-05-29T09:09:03.223Z,23.40
2018-05-29T09:11:31.823Z,23.30
2018-05-29T09:13:59.710Z,23.30
2018-05-29T09:16:28.237Z,22.90
2018-05-29T09:18:55.777Z,22.90
2018-05-29T09:21:24.049Z,23.00
2018-05-29T09:23:54.823Z,22.70
2018-05-29T09:26:22.399Z,22.70
2018-05-29T09:28:50.835Z,22.80
2018-05-29T09:31:18.609Z,22.80
2018-05-29T09:33:46.962Z,23.20
2018-05-29T09:36:14.486Z,23.20
2018-05-29T09:38:42.029Z,23.40
2018-05-29T09:41:10.687Z,23.00
2018-05-29T09:43:39.843Z,23.00
2018-05-29T09:46:07.349Z,23.20
2018-05-29T09:48:34.848Z,22.90
2018-05-29T09:51:03.271Z,22.70
2018-05-29T09:53:33.804Z,22.70
2018-05-29T09:56:02.558Z,22.90
2018-05-29T09:58:31.104Z,22.40
2018-05-29T10:00:58.754Z,22.40
2018-05-29T10:03:27.090Z,22.70
2018-05-29T10:05:56.295Z,22.80
2018-05-29T10:08:24.555Z,23.10
2018-05-29T10:10:52.144Z,23.10
2018-05-29T10:13:21.422Z,22.80
2018-05-29T10:15:49.852Z,22.80
2018-05-29T10:18:17.914Z,22.80
2018-05-29T10:21:02.053Z,23.20
2018-05-29T10:23:30.978Z,23.30
2018-05-29T10:25:59.725Z,23.20
2018-05-29T10:28:27.920Z,23.10
2018-05-29T10:30:55.812Z,23.10
2018-05-29T10:33:25.124Z,23.80
2018-05-29T10:35:52.707Z,23.80
2018-05-29T10:38:24.182Z,24.20
2018-05-29T10:40:54.626Z,23.90
2018-05-29T10:43:22.128Z,24.00
2018-05-29T10:45:50.893Z,24.10
2018-05-29T10:48:18.431Z,23.90
2018-05-29T10:50:46.904Z,24.10
2018-05-29T10:53:14.433Z,24.20
2018-05-29T10:55:41.923Z,23.80
2018-05-29T10:58:09.425Z,23.30
2018-05-29T11:00:37.814Z,22.90
2018-05-29T11:03:05.340Z,22.80
2018-05-29T11:05:32.858Z,22.90
2018-05-29T11:08:00.453Z,22.90
2018-05-29T11:10:27.989Z,23.00
2018-05-29T11:12:56.457Z,23.40
2018-05-29T11:15:24.024Z,23.20
2018-05-29T11:17:51.559Z,23.10
2018-05-29T11:20:37.681Z,23.00
2018-05-29T11:23:05.949Z,23.10
2018-05-29T11:25:34.348Z,23.00
2018-05-29T11:28:03.069Z,23.00
2018-05-29T11:30:30.927Z,22.70
2018-05-29T11:32:58.553Z,22.50
2018-05-29T11:35:27.069Z,22.30
2018-05-29T11:37:54.579Z,22.20
2018-05-29T11:40:23.503Z,22.20
2018-05-29T11:42:51.371Z,22.70
2018-05-29T11:45:18.895Z,22.60
2018-05-29T11:47:49.436Z,22.60
2018-05-29T11:50:17.416Z,22.50
2018-05-29T11:52:46.803Z,22.40
2018-05-29T11:55:14.325Z,22.40
2018-05-29T11:57:43.559Z,22.50
2018-05-29T12:00:11.988Z,22.50
2018-05-29T12:02:39.494Z,22.80
2018-05-29T12:05:07.054Z,22.80
2018-05-29T12:07:35.433Z,22.60
2018-05-29T12:10:03.914Z,22.60
2018-05-29T12:12:33.112Z,22.30
2018-05-29T12:15:01.397Z,22.40
2018-05-29T12:17:30.715Z,22.40
2018-05-29T12:19:59.771Z,22.40
2018-05-29T12:22:27.274Z,22.60
2018-05-29T12:24:55.258Z,22.80
2018-05-29T12:27:22.792Z,23.20
2018-05-29T12:29:52.820Z,23.30
2018-05-29T12:32:21.088Z,22.70
2018-05-29T12:34:51.352Z,22.80
2018-05-29T12:37:20.116Z,22.80
2018-05-29T12:39:48.731Z,23.80
2018-05-29T12:42:16.523Z,23.80
2018-05-29T12:44:44.030Z,24.00
2018-05-29T12:47:11.541Z,24.30
2018-05-29T12:49:40.982Z,24.50
2018-05-29T12:52:08.558Z,24.50
2018-05-29T12:54:37.816Z,24.50
2018-05-29T12:57:05.353Z,24.50
2018-05-29T12:59:32.859Z,24.50
2018-05-29T13:02:00.359Z,24.50
2018-05-29T13:04:29.548Z,24.50
2018-05-29T13:07:16.698Z,24.40
2018-05-29T13:09:44.536Z,24.60
2018-05-29T13:12:12.988Z,24.70
2018-05-29T13:27:52.632Z,25.20
2018-05-29T13:30:21.168Z,25.20
2018-05-29T13:32:49.891Z,25.00
2018-05-29T13:35:17.602Z,24.60
2018-05-29T13:37:45.094Z,24.20
2018-05-29T13:40:14.735Z,23.90
2018-05-29T13:42:42.341Z,23.90
2018-05-29T13:45:09.875Z,23.50
2018-05-29T13:47:37.387Z,23.70
2018-05-29T13:50:06.396Z,23.70
2018-05-29T13:52:34.894Z,23.90
2018-05-29T13:55:20.429Z,23.80
2018-05-29T13:57:49.629Z,23.90
2018-05-29T14:00:20.367Z,24.00
2018-05-29T14:02:47.899Z,24.00
2018-05-29T14:05:15.805Z,23.90
2018-05-29T14:07:45.471Z,24.20
2018-05-29T14:10:14.114Z,23.80
2018-05-29T14:12:41.665Z,23.80
2018-05-29T14:15:11.182Z,24.10
2018-05-29T14:17:39.450Z,24.50
2018-05-29T14:20:07.041Z,24.40
2018-05-29T14:22:34.631Z,24.50
2018-05-29T14:25:02.283Z,24.30
2018-05-29T14:27:30.741Z,24.20
2018-05-29T14:29:59.222Z,24.20
2018-05-29T14:32:27.534Z,24.30
2018-05-29T14:34:56.112Z,24.30
2018-05-29T14:37:23.737Z,24.50
2018-05-29T14:39:51.557Z,24.40
2018-05-29T14:42:19.647Z,24.20
2018-05-29T14:44:47.169Z,23.90
2018-05-29T14:47:14.691Z,23.90
2018-05-29T14:49:43.118Z,23.60
2018-05-29T14:52:12.691Z,23.40
2018-05-29T14:54:40.894Z,23.30
2018-05-29T14:57:08.409Z,23.10
2018-05-29T14:59:54.672Z,22.80
2018-05-29T15:02:22.931Z,22.60
2018-05-29T15:04:50.487Z,22.60
2018-05-29T15:07:19.143Z,22.50
2018-05-29T15:09:50.816Z,22.80
2018-05-29T15:12:18.877Z,23.10
2018-05-29T15:14:49.562Z,23.30
2018-05-29T15:17:17.054Z,23.40
2018-05-29T15:19:44.569Z,23.40
2018-05-29T15:22:14.047Z,23.50
2018-05-29T15:24:41.608Z,23.60
2018-05-29T15:27:10.933Z,23.80
2018-05-29T15:29:39.066Z,24.10
2018-05-29T15:32:25.290Z,24.50
2018-05-29T15:34:52.951Z,25.10
2018-05-29T15:37:21.576Z,25.50
2018-05-29T15:42:32.124Z,24.80
2018-05-29T15:45:31.208Z,24.40
2018-05-29T15:48:29.185Z,24.30
2018-05-29T15:50:56.700Z,24.20
2018-05-29T15:53:24.243Z,24.40
2018-05-29T15:55:51.770Z,24.40
2018-05-29T15:58:19.310Z,24.20
2018-05-29T16:00:48.757Z,24.10
2018-05-29T16:03:16.378Z,24.10
2018-05-29T16:06:03.637Z,24.00
2018-05-29T16:08:32.224Z,23.70
2018-05-29T16:11:00.695Z,23.70
2018-05-29T16:13:28.206Z,24.10
2018-05-29T16:15:55.773Z,24.70
2018-05-29T16:32:00.871Z,23.80
2018-05-29T16:34:29.150Z,23.40
2018-05-29T16:36:56.682Z,23.40
2018-05-29T16:39:24.232Z,23.10
2018-05-29T16:42:11.591Z,23.10
2018-05-29T16:44:39.135Z,23.20
2018-05-29T16:47:06.674Z,23.00
2018-05-29T16:49:34.211Z,22.90
2018-05-29T16:52:01.802Z,22.90
2018-05-29T17:07:47.939Z,22.70
2018-05-29T17:10:15.434Z,22.60
2018-05-29T17:12:43.861Z,23.10
2018-05-29T17:15:11.516Z,23.50
2018-05-29T17:17:39.058Z,23.60
2018-05-29T17:20:07.139Z,23.50
2018-05-29T17:36:08.006Z,23.50
2018-05-29T17:38:36.525Z,23.90
2018-05-29T17:41:04.050Z,24.10
2018-05-29T17:43:32.426Z,24.60
2018-05-29T17:46:00.695Z,24.60
2018-05-29T17:48:28.208Z,24.60
2018-05-29T17:50:56.842Z,24.30
2018-05-29T17:53:24.415Z,24.10
2018-05-29T17:55:52.231Z,23.90
2018-05-29T17:58:19.925Z,23.50
2018-05-29T18:00:47.440Z,23.30
2018-05-29T18:03:16.840Z,22.90
2018-05-29T18:05:44.534Z,22.70
2018-05-29T18:08:13.768Z,22.50
2018-05-29T18:10:41.296Z,22.20
2018-05-29T18:13:09.943Z,22.30
2018-05-29T18:15:57.297Z,22.50
2018-05-29T18:18:25.989Z,22.70
2018-05-29T18:20:54.675Z,22.70
2018-05-29T18:36:51.113Z,23.00
2018-05-29T18:39:18.674Z,22.90
2018-05-29T18:41:48.112Z,23.00
2018-05-29T18:44:15.645Z,22.90
2018-05-29T18:46:43.197Z,22.60
2018-05-29T18:49:10.762Z,22.50
2018-05-29T18:51:39.252Z,22.10
2018-05-29T18:54:13.452Z,21.70
2018-05-29T18:56:41.031Z,21.40
2018-05-29T18:59:08.613Z,21.20
2018-05-29T19:01:37.077Z,20.90
2018-05-29T19:04:05.534Z,20.70
2018-05-29T19:06:33.819Z,20.40
2018-05-29T19:09:01.397Z,20.30
2018-05-29T19:11:28.969Z,20.10
2018-05-29T19:14:15.913Z,20.10
2018-05-29T19:16:44.359Z,20.00
2018-05-29T19:32:38.988Z,19.40
2018-05-29T19:35:07.246Z,19.40
2018-05-29T19:37:34.991Z,19.40
2018-05-29T19:40:02.532Z,19.30
2018-05-29T19:42:30.985Z,19.30
2018-05-29T19:44:59.386Z,19.30
2018-05-29T19:47:26.940Z,19.30
2018-05-29T19:49:55.369Z,19.30
2018-05-29T19:52:23.870Z,19.30
2018-05-29T19:55:10.164Z,19.20
2018-05-29T20:00:17.865Z,19.00
2018-05-29T20:02:45.395Z,19.00
2018-05-29T20:05:13.105Z,18.90
2018-05-29T20:07:40.951Z,18.80
2018-05-29T20:10:08.748Z,18.80
2018-05-29T20:12:36.240Z,18.80
2018-05-29T20:15:03.977Z,18.70
2018-05-29T20:17:49.432Z,18.70
2018-05-29T20:20:17.163Z,18.60
2018-05-29T20:26:14.280Z,18.60
2018-05-29T20:28:44.775Z,18.60
2018-05-29T20:31:12.285Z,18.60
2018-05-29T20:33:40.036Z,18.60
2018-05-29T20:36:08.626Z,18.60
2018-05-29T20:52:23.745Z,18.50
2018-05-29T20:54:53.297Z,18.30
2018-05-29T20:57:20.862Z,18.20
2018-05-29T21:13:01.664Z,18.00
2018-05-29T21:15:30.152Z,17.90
2018-05-29T21:17:59.769Z,17.90
2018-05-29T21:20:27.509Z,17.90
2018-05-29T21:22:55.025Z,17.90
2018-05-29T21:25:22.672Z,17.90
2018-05-29T21:28:08.805Z,17.80
2018-05-29T21:30:38.000Z,17.90
2018-05-29T21:33:06.285Z,17.90
2018-05-29T21:35:34.558Z,17.80
2018-05-29T21:38:02.072Z,17.80
2018-05-29T21:53:38.974Z,17.80
2018-05-29T21:56:29.166Z,17.80
2018-05-29T22:12:35.710Z,17.40
2018-05-29T22:15:04.892Z,17.20
2018-05-29T22:17:33.358Z,17.20
2018-05-29T22:20:22.496Z,17.20
2018-05-29T22:35:59.870Z,17.00
2018-05-29T22:38:29.310Z,17.00
2018-05-29T22:40:56.833Z,17.00
2018-05-29T22:43:25.321Z,16.90
2018-05-29T22:45:52.820Z,17.10
2018-05-29T22:48:20.333Z,17.20
2018-05-29T22:50:47.932Z,17.20
2018-05-29T22:53:15.524Z,17.10
2018-05-29T22:55:43.946Z,17.40
2018-05-29T22:58:11.471Z,17.30
2018-05-29T23:00:57.599Z,17.30
2018-05-29T23:03:26.069Z,17.20
2018-05-29T23:05:54.334Z,17.10
2018-05-29T23:08:22.838Z,17.10
2018-05-29T23:10:51.372Z,17.00
2018-05-29T23:13:18.865Z,16.90
2018-05-29T23:15:46.371Z,16.80
2018-05-29T23:18:14.256Z,16.60
2018-05-29T23:20:41.770Z,16.50
2018-05-29T23:23:28.203Z,16.60
2018-05-29T23:25:57.662Z,16.50
2018-05-29T23:28:27.134Z,16.60
2018-05-29T23:30:54.634Z,16.60
2018-05-29T23:33:23.140Z,16.60
2018-05-29T23:35:51.415Z,16.40
2018-05-29T23:38:19.736Z,16.20
2018-05-29T23:40:48.148Z,16.20
2018-05-29T23:43:15.654Z,16.20
2018-05-29T23:45:45.852Z,16.20
2018-05-29T23:48:13.352Z,16.10
2018-05-29T23:51:00.559Z,16.20
2018-05-29T23:53:28.842Z,15.90
2018-05-29T23:55:58.329Z,15.90
2018-05-29T23:58:26.804Z,15.80
